sensor_id;sensor_type;location;lat;lon;timestamp;P1;durP1;ratioP1;P2;durP2;ratioP2
25936;SDS011;13733;51.178;4.450;2024-01-16T00:01:46;12.27;;;3.63;;
25936;SDS011;13733;51.178;4.450;2024-01-16T00:04:12;16.75;;;4.22;;
25936;SDS011;13733;51.178;4.450;2024-01-16T00:06:39;11.00;;;3.35;;
25936;SDS011;13733;51.178;4.450;2024-01-16T00:09:06;12.30;;;3.67;;
25936;SDS011;13733;51.178;4.450;2024-01-16T00:11:32;15.32;;;3.67;;
25936;SDS011;13733;51.178;4.450;2024-01-16T00:13:57;15.48;;;3.72;;
25936;SDS011;13733;51.178;4.450;2024-01-16T00:16:24;15.00;;;4.53;;
25936;SDS011;13733;51.178;4.450;2024-01-16T00:18:50;15.13;;;3.33;;
25936;SDS011;13733;51.178;4.450;2024-01-16T00:21:16;18.45;;;3.80;;
25936;SDS011;13733;51.178;4.450;2024-01-16T00:23:42;14.55;;;3.55;;
25936;SDS011;13733;51.178;4.450;2024-01-16T00:26:07;17.27;;;4.25;;
25936;SDS011;13733;51.178;4.450;2024-01-16T00:28:33;19.00;;;4.10;;
25936;SDS011;13733;51.178;4.450;2024-01-16T00:31:00;12.60;;;3.92;;
25936;SDS011;13733;51.178;4.450;2024-01-16T00:33:26;16.25;;;3.95;;
25936;SDS011;13733;51.178;4.450;2024-01-16T00:35:52;14.50;;;3.50;;
25936;SDS011;13733;51.178;4.450;2024-01-16T00:38:18;13.80;;;3.72;;
25936;SDS011;13733;51.178;4.450;2024-01-16T00:40:44;17.48;;;4.30;;
25936;SDS011;13733;51.178;4.450;2024-01-16T00:43:11;12.40;;;3.67;;
25936;SDS011;13733;51.178;4.450;2024-01-16T00:45:38;12.35;;;3.85;;
25936;SDS011;13733;51.178;4.450;2024-01-16T00:48:05;11.23;;;3.75;;
25936;SDS011;13733;51.178;4.450;2024-01-16T00:50:31;18.90;;;3.65;;
25936;SDS011;13733;51.178;4.450;2024-01-16T00:52:57;13.32;;;3.67;;
25936;SDS011;13733;51.178;4.450;2024-01-16T00:55:23;17.20;;;4.05;;
25936;SDS011;13733;51.178;4.450;2024-01-16T00:57:49;11.90;;;3.63;;
25936;SDS011;13733;51.178;4.450;2024-01-16T01:00:14;16.58;;;3.67;;
25936;SDS011;13733;51.178;4.450;2024-01-16T01:02:40;13.57;;;4.03;;
25936;SDS011;13733;51.178;4.450;2024-01-16T01:05:06;16.63;;;3.75;;
25936;SDS011;13733;51.178;4.450;2024-01-16T01:07:34;21.65;;;4.57;;
25936;SDS011;13733;51.178;4.450;2024-01-16T01:10:00;15.48;;;3.33;;
25936;SDS011;13733;51.178;4.450;2024-01-16T01:12:25;19.75;;;3.65;;
25936;SDS011;13733;51.178;4.450;2024-01-16T01:14:51;19.40;;;3.80;;
25936;SDS011;13733;51.178;4.450;2024-01-16T01:17:17;11.50;;;3.92;;
25936;SDS011;13733;51.178;4.450;2024-01-16T01:19:43;11.77;;;3.92;;
25936;SDS011;13733;51.178;4.450;2024-01-16T01:22:08;22.10;;;4.25;;
25936;SDS011;13733;51.178;4.450;2024-01-16T01:24:34;15.80;;;3.65;;
25936;SDS011;13733;51.178;4.450;2024-01-16T01:27:06;12.48;;;2.97;;
25936;SDS011;13733;51.178;4.450;2024-01-16T01:29:31;15.93;;;4.10;;
25936;SDS011;13733;51.178;4.450;2024-01-16T01:31:57;14.32;;;3.30;;
25936;SDS011;13733;51.178;4.450;2024-01-16T01:34:23;17.33;;;3.85;;
25936;SDS011;13733;51.178;4.450;2024-01-16T01:36:49;13.02;;;3.22;;
25936;SDS011;13733;51.178;4.450;2024-01-16T01:39:14;19.42;;;3.65;;
25936;SDS011;13733;51.178;4.450;2024-01-16T01:41:40;15.82;;;3.47;;
25936;SDS011;13733;51.178;4.450;2024-01-16T01:44:07;18.98;;;4.18;;
25936;SDS011;13733;51.178;4.450;2024-01-16T01:46:40;20.13;;;3.70;;
25936;SDS011;13733;51.178;4.450;2024-01-16T01:49:07;12.32;;;3.80;;
25936;SDS011;13733;51.178;4.450;2024-01-16T01:51:33;16.60;;;3.67;;
25936;SDS011;13733;51.178;4.450;2024-01-16T01:53:59;14.43;;;4.15;;
25936;SDS011;13733;51.178;4.450;2024-01-16T01:56:26;16.25;;;4.78;;
25936;SDS011;13733;51.178;4.450;2024-01-16T01:58:53;15.82;;;3.78;;
25936;SDS011;13733;51.178;4.450;2024-01-16T02:01:21;16.77;;;4.10;;
25936;SDS011;13733;51.178;4.450;2024-01-16T02:03:47;11.05;;;3.80;;
25936;SDS011;13733;51.178;4.450;2024-01-16T02:06:16;20.88;;;4.43;;
25936;SDS011;13733;51.178;4.450;2024-01-16T02:08:42;23.98;;;5.10;;
25936;SDS011;13733;51.178;4.450;2024-01-16T02:11:08;14.65;;;4.57;;
25936;SDS011;13733;51.178;4.450;2024-01-16T02:13:35;11.73;;;3.80;;
25936;SDS011;13733;51.178;4.450;2024-01-16T02:16:01;12.43;;;4.22;;
25936;SDS011;13733;51.178;4.450;2024-01-16T02:18:28;18.38;;;4.13;;
25936;SDS011;13733;51.178;4.450;2024-01-16T02:20:59;16.25;;;3.78;;
25936;SDS011;13733;51.178;4.450;2024-01-16T02:23:29;18.80;;;4.78;;
25936;SDS011;13733;51.178;4.450;2024-01-16T02:25:56;13.77;;;4.18;;
25936;SDS011;13733;51.178;4.450;2024-01-16T02:28:22;13.10;;;4.07;;
25936;SDS011;13733;51.178;4.450;2024-01-16T02:30:48;15.68;;;4.80;;
25936;SDS011;13733;51.178;4.450;2024-01-16T02:33:14;16.73;;;4.10;;
25936;SDS011;13733;51.178;4.450;2024-01-16T02:35:39;17.35;;;4.45;;
25936;SDS011;13733;51.178;4.450;2024-01-16T02:38:11;12.50;;;4.45;;
25936;SDS011;13733;51.178;4.450;2024-01-16T02:40:37;8.60;;;4.03;;
25936;SDS011;13733;51.178;4.450;2024-01-16T02:43:02;11.07;;;3.85;;
25936;SDS011;13733;51.178;4.450;2024-01-16T02:45:28;10.95;;;4.00;;
25936;SDS011;13733;51.178;4.450;2024-01-16T02:47:56;17.92;;;3.92;;
25936;SDS011;13733;51.178;4.450;2024-01-16T02:50:22;11.43;;;4.20;;
25936;SDS011;13733;51.178;4.450;2024-01-16T02:52:48;14.68;;;4.10;;
25936;SDS011;13733;51.178;4.450;2024-01-16T02:55:14;14.82;;;4.00;;
25936;SDS011;13733;51.178;4.450;2024-01-16T02:57:40;12.65;;;4.03;;
25936;SDS011;13733;51.178;4.450;2024-01-16T03:00:05;13.05;;;4.47;;
25936;SDS011;13733;51.178;4.450;2024-01-16T03:02:33;16.70;;;4.65;;
25936;SDS011;13733;51.178;4.450;2024-01-16T03:04:59;12.60;;;4.10;;
25936;SDS011;13733;51.178;4.450;2024-01-16T03:07:24;16.20;;;4.00;;
25936;SDS011;13733;51.178;4.450;2024-01-16T03:09:50;13.63;;;3.92;;
25936;SDS011;13733;51.178;4.450;2024-01-16T03:12:16;12.15;;;3.95;;
25936;SDS011;13733;51.178;4.450;2024-01-16T03:14:42;11.07;;;3.72;;
25936;SDS011;13733;51.178;4.450;2024-01-16T03:17:08;16.15;;;3.58;;
25936;SDS011;13733;51.178;4.450;2024-01-16T03:19:34;12.75;;;3.63;;
25936;SDS011;13733;51.178;4.450;2024-01-16T03:22:02;14.05;;;3.60;;
25936;SDS011;13733;51.178;4.450;2024-01-16T03:24:29;7.63;;;3.85;;
25936;SDS011;13733;51.178;4.450;2024-01-16T03:26:55;18.80;;;3.65;;
25936;SDS011;13733;51.178;4.450;2024-01-16T03:29:21;9.13;;;3.58;;
25936;SDS011;13733;51.178;4.450;2024-01-16T03:31:47;13.15;;;3.95;;
25936;SDS011;13733;51.178;4.450;2024-01-16T03:34:14;16.17;;;3.45;;
25936;SDS011;13733;51.178;4.450;2024-01-16T03:36:40;9.32;;;3.70;;
25936;SDS011;13733;51.178;4.450;2024-01-16T03:39:05;15.13;;;4.05;;
25936;SDS011;13733;51.178;4.450;2024-01-16T03:41:31;16.65;;;4.00;;
25936;SDS011;13733;51.178;4.450;2024-01-16T03:43:57;19.33;;;3.97;;
25936;SDS011;13733;51.178;4.450;2024-01-16T03:46:23;11.27;;;3.80;;
25936;SDS011;13733;51.178;4.450;2024-01-16T03:48:49;15.25;;;4.00;;
25936;SDS011;13733;51.178;4.450;2024-01-16T03:51:16;11.85;;;4.05;;
25936;SDS011;13733;51.178;4.450;2024-01-16T03:53:43;18.33;;;4.00;;
25936;SDS011;13733;51.178;4.450;2024-01-16T03:56:08;10.52;;;4.15;;
25936;SDS011;13733;51.178;4.450;2024-01-16T03:58:34;14.48;;;4.07;;
25936;SDS011;13733;51.178;4.450;2024-01-16T04:01:01;14.38;;;3.90;;
25936;SDS011;13733;51.178;4.450;2024-01-16T04:03:28;11.57;;;4.05;;
25936;SDS011;13733;51.178;4.450;2024-01-16T04:05:54;13.35;;;3.83;;
25936;SDS011;13733;51.178;4.450;2024-01-16T04:08:20;8.50;;;3.33;;
25936;SDS011;13733;51.178;4.450;2024-01-16T04:10:45;10.50;;;3.33;;
25936;SDS011;13733;51.178;4.450;2024-01-16T04:13:12;12.18;;;3.83;;
25936;SDS011;13733;51.178;4.450;2024-01-16T04:15:38;11.40;;;3.85;;
25936;SDS011;13733;51.178;4.450;2024-01-16T04:18:04;13.93;;;3.60;;
25936;SDS011;13733;51.178;4.450;2024-01-16T04:20:30;11.55;;;3.63;;
25936;SDS011;13733;51.178;4.450;2024-01-16T04:22:56;12.43;;;4.20;;
25936;SDS011;13733;51.178;4.450;2024-01-16T04:25:23;10.63;;;3.33;;
25936;SDS011;13733;51.178;4.450;2024-01-16T04:27:49;8.38;;;3.75;;
25936;SDS011;13733;51.178;4.450;2024-01-16T04:30:15;11.90;;;3.92;;
25936;SDS011;13733;51.178;4.450;2024-01-16T04:32:41;16.85;;;3.97;;
25936;SDS011;13733;51.178;4.450;2024-01-16T04:35:08;10.75;;;3.60;;
25936;SDS011;13733;51.178;4.450;2024-01-16T04:37:34;15.77;;;3.88;;
25936;SDS011;13733;51.178;4.450;2024-01-16T04:39:59;13.75;;;4.47;;
25936;SDS011;13733;51.178;4.450;2024-01-16T04:42:25;11.80;;;3.85;;
25936;SDS011;13733;51.178;4.450;2024-01-16T04:44:51;12.07;;;3.97;;
25936;SDS011;13733;51.178;4.450;2024-01-16T04:47:19;7.00;;;3.42;;
25936;SDS011;13733;51.178;4.450;2024-01-16T04:49:45;12.45;;;3.45;;
25936;SDS011;13733;51.178;4.450;2024-01-16T04:52:11;13.15;;;4.30;;
25936;SDS011;13733;51.178;4.450;2024-01-16T04:54:36;12.15;;;3.88;;
25936;SDS011;13733;51.178;4.450;2024-01-16T04:57:03;12.02;;;3.72;;
25936;SDS011;13733;51.178;4.450;2024-01-16T04:59:30;14.50;;;3.90;;
25936;SDS011;13733;51.178;4.450;2024-01-16T05:01:55;13.00;;;4.47;;
25936;SDS011;13733;51.178;4.450;2024-01-16T05:04:21;8.00;;;4.10;;
25936;SDS011;13733;51.178;4.450;2024-01-16T05:06:50;12.57;;;4.10;;
25936;SDS011;13733;51.178;4.450;2024-01-16T05:09:18;9.77;;;3.97;;
25936;SDS011;13733;51.178;4.450;2024-01-16T05:11:46;12.32;;;3.78;;
25936;SDS011;13733;51.178;4.450;2024-01-16T05:14:12;14.88;;;4.15;;
25936;SDS011;13733;51.178;4.450;2024-01-16T05:16:38;15.43;;;3.95;;
25936;SDS011;13733;51.178;4.450;2024-01-16T05:19:03;18.20;;;4.55;;
25936;SDS011;13733;51.178;4.450;2024-01-16T05:21:30;8.25;;;3.35;;
25936;SDS011;13733;51.178;4.450;2024-01-16T05:23:56;10.82;;;3.40;;
25936;SDS011;13733;51.178;4.450;2024-01-16T05:26:21;12.88;;;3.88;;
25936;SDS011;13733;51.178;4.450;2024-01-16T05:28:47;12.07;;;3.72;;
25936;SDS011;13733;51.178;4.450;2024-01-16T05:31:13;14.57;;;4.13;;
25936;SDS011;13733;51.178;4.450;2024-01-16T05:33:39;15.35;;;3.95;;
25936;SDS011;13733;51.178;4.450;2024-01-16T05:36:04;9.27;;;3.70;;
25936;SDS011;13733;51.178;4.450;2024-01-16T05:38:30;9.48;;;3.97;;
25936;SDS011;13733;51.178;4.450;2024-01-16T05:40:56;13.85;;;4.53;;
25936;SDS011;13733;51.178;4.450;2024-01-16T05:43:22;16.30;;;3.67;;
25936;SDS011;13733;51.178;4.450;2024-01-16T05:45:48;10.48;;;4.05;;
25936;SDS011;13733;51.178;4.450;2024-01-16T05:48:17;8.88;;;3.60;;
25936;SDS011;13733;51.178;4.450;2024-01-16T05:50:43;12.20;;;4.25;;
25936;SDS011;13733;51.178;4.450;2024-01-16T05:53:09;7.03;;;3.05;;
25936;SDS011;13733;51.178;4.450;2024-01-16T05:55:35;8.35;;;3.97;;
25936;SDS011;13733;51.178;4.450;2024-01-16T05:58:03;11.18;;;5.03;;
25936;SDS011;13733;51.178;4.450;2024-01-16T06:00:30;11.40;;;3.88;;
25936;SDS011;13733;51.178;4.450;2024-01-16T06:02:56;15.15;;;3.85;;
25936;SDS011;13733;51.178;4.450;2024-01-16T06:05:21;13.07;;;3.60;;
25936;SDS011;13733;51.178;4.450;2024-01-16T06:07:48;11.48;;;4.32;;
25936;SDS011;13733;51.178;4.450;2024-01-16T06:10:13;13.30;;;3.65;;
25936;SDS011;13733;51.178;4.450;2024-01-16T06:12:39;13.35;;;4.07;;
25936;SDS011;13733;51.178;4.450;2024-01-16T06:15:05;12.90;;;3.60;;
25936;SDS011;13733;51.178;4.450;2024-01-16T06:17:32;8.15;;;3.65;;
25936;SDS011;13733;51.178;4.450;2024-01-16T06:19:57;8.00;;;4.00;;
25936;SDS011;13733;51.178;4.450;2024-01-16T06:22:23;9.70;;;3.63;;
25936;SDS011;13733;51.178;4.450;2024-01-16T06:24:49;9.95;;;3.97;;
25936;SDS011;13733;51.178;4.450;2024-01-16T06:27:15;12.73;;;3.80;;
25936;SDS011;13733;51.178;4.450;2024-01-16T06:29:44;11.25;;;3.63;;
25936;SDS011;13733;51.178;4.450;2024-01-16T06:32:10;7.72;;;3.47;;
25936;SDS011;13733;51.178;4.450;2024-01-16T06:34:37;8.68;;;3.50;;
25936;SDS011;13733;51.178;4.450;2024-01-16T06:39:37;11.52;;;4.60;;
25936;SDS011;13733;51.178;4.450;2024-01-16T06:42:10;9.77;;;3.55;;
25936;SDS011;13733;51.178;4.450;2024-01-16T06:44:36;10.10;;;4.07;;
25936;SDS011;13733;51.178;4.450;2024-01-16T06:47:02;12.10;;;3.85;;
25936;SDS011;13733;51.178;4.450;2024-01-16T06:49:28;12.90;;;3.72;;
25936;SDS011;13733;51.178;4.450;2024-01-16T06:51:54;9.35;;;3.53;;
25936;SDS011;13733;51.178;4.450;2024-01-16T06:54:19;11.95;;;4.00;;
25936;SDS011;13733;51.178;4.450;2024-01-16T06:56:46;13.32;;;4.15;;
25936;SDS011;13733;51.178;4.450;2024-01-16T06:59:14;11.32;;;3.58;;
25936;SDS011;13733;51.178;4.450;2024-01-16T07:01:41;11.48;;;4.00;;
25936;SDS011;13733;51.178;4.450;2024-01-16T07:04:07;13.70;;;4.22;;
25936;SDS011;13733;51.178;4.450;2024-01-16T07:06:32;12.00;;;3.88;;
25936;SDS011;13733;51.178;4.450;2024-01-16T07:08:58;10.43;;;3.50;;
25936;SDS011;13733;51.178;4.450;2024-01-16T07:11:24;9.45;;;3.50;;
25936;SDS011;13733;51.178;4.450;2024-01-16T07:13:50;11.55;;;3.65;;
25936;SDS011;13733;51.178;4.450;2024-01-16T07:16:16;9.00;;;3.88;;
25936;SDS011;13733;51.178;4.450;2024-01-16T07:18:41;13.68;;;4.00;;
25936;SDS011;13733;51.178;4.450;2024-01-16T07:21:18;14.20;;;4.20;;
25936;SDS011;13733;51.178;4.450;2024-01-16T07:23:44;12.45;;;4.30;;
25936;SDS011;13733;51.178;4.450;2024-01-16T07:26:10;16.90;;;4.35;;
25936;SDS011;13733;51.178;4.450;2024-01-16T07:28:35;15.68;;;4.40;;
25936;SDS011;13733;51.178;4.450;2024-01-16T07:31:01;13.27;;;4.00;;
25936;SDS011;13733;51.178;4.450;2024-01-16T07:33:27;18.05;;;4.88;;
25936;SDS011;13733;51.178;4.450;2024-01-16T07:35:54;12.63;;;4.55;;
25936;SDS011;13733;51.178;4.450;2024-01-16T07:38:21;12.10;;;4.35;;
25936;SDS011;13733;51.178;4.450;2024-01-16T07:40:46;13.15;;;4.20;;
25936;SDS011;13733;51.178;4.450;2024-01-16T07:43:12;23.40;;;4.55;;
25936;SDS011;13733;51.178;4.450;2024-01-16T07:45:38;12.75;;;4.28;;
25936;SDS011;13733;51.178;4.450;2024-01-16T07:48:04;16.27;;;4.35;;
25936;SDS011;13733;51.178;4.450;2024-01-16T07:50:30;10.73;;;3.75;;
25936;SDS011;13733;51.178;4.450;2024-01-16T07:52:56;12.27;;;3.90;;
25936;SDS011;13733;51.178;4.450;2024-01-16T07:55:23;13.18;;;3.92;;
25936;SDS011;13733;51.178;4.450;2024-01-16T07:57:49;10.85;;;4.20;;
25936;SDS011;13733;51.178;4.450;2024-01-16T08:00:14;9.38;;;3.92;;
25936;SDS011;13733;51.178;4.450;2024-01-16T08:02:40;17.08;;;4.55;;
25936;SDS011;13733;51.178;4.450;2024-01-16T08:05:06;13.32;;;4.38;;
25936;SDS011;13733;51.178;4.450;2024-01-16T08:07:36;10.23;;;4.32;;
25936;SDS011;13733;51.178;4.450;2024-01-16T08:10:02;10.93;;;4.22;;
25936;SDS011;13733;51.178;4.450;2024-01-16T08:12:29;11.15;;;4.13;;
25936;SDS011;13733;51.178;4.450;2024-01-16T08:14:56;13.27;;;4.53;;
25936;SDS011;13733;51.178;4.450;2024-01-16T08:17:22;15.18;;;4.93;;
25936;SDS011;13733;51.178;4.450;2024-01-16T08:19:48;13.20;;;4.28;;
25936;SDS011;13733;51.178;4.450;2024-01-16T08:22:14;16.33;;;6.43;;
25936;SDS011;13733;51.178;4.450;2024-01-16T08:24:40;13.88;;;5.68;;
25936;SDS011;13733;51.178;4.450;2024-01-16T08:27:08;14.80;;;4.40;;
25936;SDS011;13733;51.178;4.450;2024-01-16T08:29:35;17.73;;;4.78;;
25936;SDS011;13733;51.178;4.450;2024-01-16T08:32:01;15.55;;;4.68;;
25936;SDS011;13733;51.178;4.450;2024-01-16T08:34:27;8.10;;;4.05;;
25936;SDS011;13733;51.178;4.450;2024-01-16T08:36:52;15.90;;;4.57;;
25936;SDS011;13733;51.178;4.450;2024-01-16T08:39:22;12.95;;;4.30;;
25936;SDS011;13733;51.178;4.450;2024-01-16T08:41:50;13.52;;;3.97;;
25936;SDS011;13733;51.178;4.450;2024-01-16T08:44:17;13.98;;;4.82;;
25936;SDS011;13733;51.178;4.450;2024-01-16T08:46:43;9.18;;;3.80;;
25936;SDS011;13733;51.178;4.450;2024-01-16T08:49:08;11.38;;;3.88;;
25936;SDS011;13733;51.178;4.450;2024-01-16T08:51:36;15.43;;;4.90;;
25936;SDS011;13733;51.178;4.450;2024-01-16T08:54:02;13.60;;;4.75;;
25936;SDS011;13733;51.178;4.450;2024-01-16T08:56:28;10.18;;;4.32;;
25936;SDS011;13733;51.178;4.450;2024-01-16T08:58:54;11.38;;;4.00;;
25936;SDS011;13733;51.178;4.450;2024-01-16T09:01:19;9.43;;;4.20;;
25936;SDS011;13733;51.178;4.450;2024-01-16T09:03:46;10.15;;;4.45;;
25936;SDS011;13733;51.178;4.450;2024-01-16T09:06:12;10.82;;;4.10;;
25936;SDS011;13733;51.178;4.450;2024-01-16T09:08:38;12.75;;;4.50;;
25936;SDS011;13733;51.178;4.450;2024-01-16T09:11:04;16.65;;;4.60;;
25936;SDS011;13733;51.178;4.450;2024-01-16T09:13:29;14.07;;;4.63;;
25936;SDS011;13733;51.178;4.450;2024-01-16T09:15:56;12.65;;;4.35;;
25936;SDS011;13733;51.178;4.450;2024-01-16T09:18:22;13.32;;;4.50;;
25936;SDS011;13733;51.178;4.450;2024-01-16T09:20:48;12.95;;;4.95;;
25936;SDS011;13733;51.178;4.450;2024-01-16T09:23:14;11.75;;;5.00;;
25936;SDS011;13733;51.178;4.450;2024-01-16T09:25:40;11.70;;;3.92;;
25936;SDS011;13733;51.178;4.450;2024-01-16T09:28:07;12.73;;;4.25;;
25936;SDS011;13733;51.178;4.450;2024-01-16T09:30:33;13.00;;;5.07;;
25936;SDS011;13733;51.178;4.450;2024-01-16T09:32:59;12.25;;;4.95;;
25936;SDS011;13733;51.178;4.450;2024-01-16T09:35:24;17.45;;;5.75;;
25936;SDS011;13733;51.178;4.450;2024-01-16T09:37:50;12.23;;;5.43;;
25936;SDS011;13733;51.178;4.450;2024-01-16T09:40:16;16.42;;;6.47;;
25936;SDS011;13733;51.178;4.450;2024-01-16T09:42:42;21.00;;;7.22;;
25936;SDS011;13733;51.178;4.450;2024-01-16T09:45:08;21.75;;;5.97;;
25936;SDS011;13733;51.178;4.450;2024-01-16T09:47:36;16.83;;;5.90;;
25936;SDS011;13733;51.178;4.450;2024-01-16T09:50:04;15.77;;;5.82;;
25936;SDS011;13733;51.178;4.450;2024-01-16T09:52:30;16.05;;;5.50;;
25936;SDS011;13733;51.178;4.450;2024-01-16T09:54:56;13.50;;;4.97;;
25936;SDS011;13733;51.178;4.450;2024-01-16T09:57:25;12.93;;;4.60;;
25936;SDS011;13733;51.178;4.450;2024-01-16T09:59:52;20.50;;;6.35;;
25936;SDS011;13733;51.178;4.450;2024-01-16T10:02:18;17.08;;;5.15;;
25936;SDS011;13733;51.178;4.450;2024-01-16T10:04:46;12.48;;;4.53;;
25936;SDS011;13733;51.178;4.450;2024-01-16T10:07:12;10.60;;;4.88;;
25936;SDS011;13733;51.178;4.450;2024-01-16T10:09:39;11.77;;;5.15;;
25936;SDS011;13733;51.178;4.450;2024-01-16T10:12:07;15.80;;;4.50;;
25936;SDS011;13733;51.178;4.450;2024-01-16T10:14:35;12.57;;;4.82;;
25936;SDS011;13733;51.178;4.450;2024-01-16T10:17:04;13.20;;;5.35;;
25936;SDS011;13733;51.178;4.450;2024-01-16T10:20:01;12.25;;;4.60;;
25936;SDS011;13733;51.178;4.450;2024-01-16T10:22:30;9.85;;;4.78;;
25936;SDS011;13733;51.178;4.450;2024-01-16T10:25:11;12.38;;;4.97;;
25936;SDS011;13733;51.178;4.450;2024-01-16T10:27:41;10.40;;;4.28;;
25936;SDS011;13733;51.178;4.450;2024-01-16T10:30:09;10.32;;;4.47;;
25936;SDS011;13733;51.178;4.450;2024-01-16T10:32:42;12.57;;;5.43;;
25936;SDS011;13733;51.178;4.450;2024-01-16T10:35:09;10.48;;;4.38;;
25936;SDS011;13733;51.178;4.450;2024-01-16T10:42:58;15.38;;;5.53;;
25936;SDS011;13733;51.178;4.450;2024-01-16T10:45:24;18.45;;;5.72;;
25936;SDS011;13733;51.178;4.450;2024-01-16T10:50:31;10.55;;;4.47;;
25936;SDS011;13733;51.178;4.450;2024-01-16T10:53:04;9.30;;;3.72;;
25936;SDS011;13733;51.178;4.450;2024-01-16T10:55:33;7.03;;;3.80;;
25936;SDS011;13733;51.178;4.450;2024-01-16T10:58:09;11.35;;;3.88;;
25936;SDS011;13733;51.178;4.450;2024-01-16T11:00:36;10.75;;;4.10;;
25936;SDS011;13733;51.178;4.450;2024-01-16T11:03:11;9.65;;;4.10;;
25936;SDS011;13733;51.178;4.450;2024-01-16T11:05:44;7.70;;;4.05;;
25936;SDS011;13733;51.178;4.450;2024-01-16T11:08:11;9.90;;;4.25;;
25936;SDS011;13733;51.178;4.450;2024-01-16T11:10:42;12.82;;;4.32;;
25936;SDS011;13733;51.178;4.450;2024-01-16T11:13:10;9.25;;;3.53;;
25936;SDS011;13733;51.178;4.450;2024-01-16T11:15:37;8.48;;;3.88;;
25936;SDS011;13733;51.178;4.450;2024-01-16T11:18:03;10.55;;;4.00;;
25936;SDS011;13733;51.178;4.450;2024-01-16T11:20:31;8.23;;;3.60;;
25936;SDS011;13733;51.178;4.450;2024-01-16T11:23:00;11.25;;;4.22;;
25936;SDS011;13733;51.178;4.450;2024-01-16T11:25:33;10.85;;;3.88;;
25936;SDS011;13733;51.178;4.450;2024-01-16T11:28:08;11.38;;;4.32;;
25936;SDS011;13733;51.178;4.450;2024-01-16T11:30:40;7.93;;;3.40;;
25936;SDS011;13733;51.178;4.450;2024-01-16T11:33:06;9.05;;;3.83;;
25936;SDS011;13733;51.178;4.450;2024-01-16T11:35:52;10.02;;;3.92;;
25936;SDS011;13733;51.178;4.450;2024-01-16T11:38:18;9.38;;;4.18;;
25936;SDS011;13733;51.178;4.450;2024-01-16T11:40:47;7.27;;;3.93;;
25936;SDS011;13733;51.178;4.450;2024-01-16T11:45:58;12.32;;;3.72;;
25936;SDS011;13733;51.178;4.450;2024-01-16T11:48:25;9.55;;;3.78;;
25936;SDS011;13733;51.178;4.450;2024-01-16T11:50:53;10.07;;;3.75;;
25936;SDS011;13733;51.178;4.450;2024-01-16T11:53:35;7.53;;;3.63;;
25936;SDS011;13733;51.178;4.450;2024-01-16T11:58:45;9.43;;;4.07;;
25936;SDS011;13733;51.178;4.450;2024-01-16T12:01:17;9.90;;;4.28;;
25936;SDS011;13733;51.178;4.450;2024-01-16T12:03:45;8.40;;;4.68;;
25936;SDS011;13733;51.178;4.450;2024-01-16T12:06:10;9.75;;;4.05;;
25936;SDS011;13733;51.178;4.450;2024-01-16T12:08:36;11.73;;;4.68;;
25936;SDS011;13733;51.178;4.450;2024-01-16T12:11:02;9.68;;;4.10;;
25936;SDS011;13733;51.178;4.450;2024-01-16T12:13:29;10.25;;;4.00;;
25936;SDS011;13733;51.178;4.450;2024-01-16T12:16:04;10.45;;;4.25;;
25936;SDS011;13733;51.178;4.450;2024-01-16T12:18:31;13.15;;;4.00;;
25936;SDS011;13733;51.178;4.450;2024-01-16T12:21:07;8.05;;;3.75;;
25936;SDS011;13733;51.178;4.450;2024-01-16T12:23:35;16.27;;;4.20;;
25936;SDS011;13733;51.178;4.450;2024-01-16T12:26:01;8.00;;;4.18;;
25936;SDS011;13733;51.178;4.450;2024-01-16T12:28:28;11.18;;;4.97;;
25936;SDS011;13733;51.178;4.450;2024-01-16T12:30:54;10.15;;;4.63;;
25936;SDS011;13733;51.178;4.450;2024-01-16T12:33:23;9.25;;;4.47;;
25936;SDS011;13733;51.178;4.450;2024-01-16T12:35:49;13.13;;;4.70;;
25936;SDS011;13733;51.178;4.450;2024-01-16T12:38:15;9.00;;;4.13;;
25936;SDS011;13733;51.178;4.450;2024-01-16T12:40:51;10.80;;;4.15;;
25936;SDS011;13733;51.178;4.450;2024-01-16T12:43:18;9.27;;;4.38;;
25936;SDS011;13733;51.178;4.450;2024-01-16T12:45:44;10.88;;;4.05;;
25936;SDS011;13733;51.178;4.450;2024-01-16T12:48:10;9.98;;;3.97;;
25936;SDS011;13733;51.178;4.450;2024-01-16T12:50:36;11.10;;;4.07;;
25936;SDS011;13733;51.178;4.450;2024-01-16T12:53:03;12.98;;;4.28;;
25936;SDS011;13733;51.178;4.450;2024-01-16T12:55:37;9.43;;;3.60;;
25936;SDS011;13733;51.178;4.450;2024-01-16T13:00:38;7.43;;;3.53;;
25936;SDS011;13733;51.178;4.450;2024-01-16T13:03:07;8.55;;;3.45;;
25936;SDS011;13733;51.178;4.450;2024-01-16T13:05:34;8.20;;;3.30;;
25936;SDS011;13733;51.178;4.450;2024-01-16T13:08:00;11.45;;;3.63;;
25936;SDS011;13733;51.178;4.450;2024-01-16T13:10:29;10.48;;;3.67;;
25936;SDS011;13733;51.178;4.450;2024-01-16T13:13:15;9.25;;;3.25;;
25936;SDS011;13733;51.178;4.450;2024-01-16T13:15:42;10.68;;;3.50;;
25936;SDS011;13733;51.178;4.450;2024-01-16T13:18:22;9.27;;;3.60;;
25936;SDS011;13733;51.178;4.450;2024-01-16T13:20:53;7.38;;;3.10;;
25936;SDS011;13733;51.178;4.450;2024-01-16T13:23:21;7.32;;;2.85;;
25936;SDS011;13733;51.178;4.450;2024-01-16T13:25:49;7.07;;;2.90;;
25936;SDS011;13733;51.178;4.450;2024-01-16T13:28:18;9.15;;;2.80;;
25936;SDS011;13733;51.178;4.450;2024-01-16T13:30:46;7.43;;;3.50;;
25936;SDS011;13733;51.178;4.450;2024-01-16T13:33:13;6.85;;;3.47;;
25936;SDS011;13733;51.178;4.450;2024-01-16T13:35:41;9.05;;;2.97;;
25936;SDS011;13733;51.178;4.450;2024-01-16T13:38:08;8.85;;;3.10;;
25936;SDS011;13733;51.178;4.450;2024-01-16T13:40:36;9.80;;;3.08;;
25936;SDS011;13733;51.178;4.450;2024-01-16T13:45:34;11.43;;;3.30;;
25936;SDS011;13733;51.178;4.450;2024-01-16T13:48:01;8.43;;;3.17;;
25936;SDS011;13733;51.178;4.450;2024-01-16T13:50:27;6.15;;;2.72;;
25936;SDS011;13733;51.178;4.450;2024-01-16T13:52:53;4.90;;;2.67;;
25936;SDS011;13733;51.178;4.450;2024-01-16T13:55:19;7.88;;;3.00;;
25936;SDS011;13733;51.178;4.450;2024-01-16T13:57:46;10.30;;;3.03;;
25936;SDS011;13733;51.178;4.450;2024-01-16T14:00:12;7.95;;;3.13;;
25936;SDS011;13733;51.178;4.450;2024-01-16T14:02:40;8.35;;;2.85;;
25936;SDS011;13733;51.178;4.450;2024-01-16T14:05:09;7.45;;;2.67;;
25936;SDS011;13733;51.178;4.450;2024-01-16T14:07:39;6.65;;;2.80;;
25936;SDS011;13733;51.178;4.450;2024-01-16T14:10:08;6.45;;;2.70;;
25936;SDS011;13733;51.178;4.450;2024-01-16T14:12:40;9.43;;;3.55;;
25936;SDS011;13733;51.178;4.450;2024-01-16T14:15:11;8.65;;;2.95;;
25936;SDS011;13733;51.178;4.450;2024-01-16T14:17:42;7.10;;;3.20;;
25936;SDS011;13733;51.178;4.450;2024-01-16T14:20:10;10.48;;;2.80;;
25936;SDS011;13733;51.178;4.450;2024-01-16T14:22:36;8.70;;;3.08;;
25936;SDS011;13733;51.178;4.450;2024-01-16T14:25:03;13.02;;;3.35;;
25936;SDS011;13733;51.178;4.450;2024-01-16T14:27:42;10.30;;;2.90;;
25936;SDS011;13733;51.178;4.450;2024-01-16T14:30:12;6.00;;;2.95;;
25936;SDS011;13733;51.178;4.450;2024-01-16T14:32:40;10.93;;;3.35;;
25936;SDS011;13733;51.178;4.450;2024-01-16T14:35:07;7.10;;;3.38;;
25936;SDS011;13733;51.178;4.450;2024-01-16T14:37:35;10.18;;;3.17;;
25936;SDS011;13733;51.178;4.450;2024-01-16T14:40:02;6.85;;;3.30;;
25936;SDS011;13733;51.178;4.450;2024-01-16T14:42:46;8.00;;;3.28;;
25936;SDS011;13733;51.178;4.450;2024-01-16T14:45:13;6.97;;;2.95;;
25936;SDS011;13733;51.178;4.450;2024-01-16T14:47:40;9.70;;;3.30;;
25936;SDS011;13733;51.178;4.450;2024-01-16T14:50:08;7.25;;;3.05;;
25936;SDS011;13733;51.178;4.450;2024-01-16T14:52:35;9.18;;;3.25;;
25936;SDS011;13733;51.178;4.450;2024-01-16T14:55:01;8.52;;;3.10;;
25936;SDS011;13733;51.178;4.450;2024-01-16T14:57:28;7.82;;;3.13;;
25936;SDS011;13733;51.178;4.450;2024-01-16T14:59:56;13.18;;;3.05;;